Welcome to Trans World Virtual Airlines!

Welcome TWVA's Newest Pilot:

TWA2313 Bryan Heald

Not a Trans World pilot yet?
Apply Now!




Sign-in with your pilot id or email, or register

Flight TWA411-A

  • Submitted By: Austin Hill
  • Departure Airport: Lambert-Saint Louis International Airport (KSTL)
  • Arrival Airport: Kansas City International Airport (KMCI)
  • Aircraft: B737-800 (N4112TW)
  • Flight Time: 01.17
  • Date Submitted: 06/29/2018
  • Route: STL COU MCI
  • Status: Accepted
Flight Details
Gross Revenue:
(156 load / $ 95.00 per unit
$ 14, 820.00
Fuel Cost:
(5331 fuel used @ 0.8 / unit)
$ 4, 264.80

Additional Log Information:

View Log

FS[18:09] Aircraft Title - Boeing 737-800
FS[18:09] Aircraft Model - B738
FS[18:09] Flight Number TWA411-A
FS[18:09] Departure KSTL
FS[18:09] Destination KMCI
FS[18:09] Boarding
FS[18:12] Pushing Back
FS[18:16] Taxiing to Runway
FS[18:22] Taking Off
FS[18:22] Taking Off
FS[18:22] 181kts
FS[18:22] pitch angle 7 degrees
FS[18:22] 15736 (lbs) of fuel onboard
FS[18:22] Climbing
FS[18:33] TOC Reached
FS[18:33] Cruise 28000
FS[18:42] TOD Reached
FS[18:42] Descending
FS[18:58] On Approach
FS[19:12] Landing Rate -135fpm
FS[19:12] 11597 (lbs) of fuel onboard
FS[19:12] pitch angle 8 degrees
FS[19:12] Taxiing to Gate
FS[19:19] Arrived
FS[19:25] Max Sim Rate: 1x
FS[19:25] kACARS_Free Version 1.0.1.1

Comments

Commenter Comment
Austin Hill KSTL 291800Z 17106KT P6SM CLR 32/23 A3000// KMCI 291853Z 17818KT P6SM CLR 36/21 A2985

Route Map